This is the latest recevied weather packets stored in our database for station/object N0EDB-13. If no packets are shown the sender has not sent any weather packets the latest 10 day(s).
| Time | Temp. | Humidity | Pressure | Rain* | Wind** | Luminosity | Snow |
|---|---|---|---|---|---|---|---|
| 1777745889 | 20° C | 18% | 1482.1 hPa | 0 mm | - | 995 W/m² | - |
| 1777745589 | 18.89° C | 18% | 1484 hPa | 0 mm | - | 993 W/m² | - |
| 1777745289 | 18.89° C | 20% | 1484.4 hPa | 0 mm | - | 990 W/m² | - |
| 1777744988 | 19.44° C | 18% | 1483.7 hPa | 0 mm | - | 983 W/m² | - |
| 1777744686 | 19.44° C | 19% | 1483.9 hPa | 0 mm | - | 977 W/m² | - |
| 1777744386 | 19.44° C | 19% | 1483.3 hPa | 0 mm | - | 972 W/m² | - |
| 1777744085 | 19.44° C | 19% | 1484 hPa | 0 mm | - | 964 W/m² | - |
| 1777743784 | 18.89° C | 19% | 1484.9 hPa | 0 mm | - | 957 W/m² | - |
| 1777743483 | 18.89° C | 20% | 1485.3 hPa | 0 mm | - | 949 W/m² | - |
| 1777743183 | 18.89° C | 19% | 1485.2 hPa | 0 mm | - | 945 W/m² | - |
| 1777742882 | 18.89° C | 20% | 1485.6 hPa | 0 mm | - | 934 W/m² | - |
| 1777742581 | 18.89° C | 20% | 1485.6 hPa | 0 mm | - | 925 W/m² | - |
| 1777742280 | 19.44° C | 21% | 1484.5 hPa | 0 mm | - | 915 W/m² | - |
| 1777741980 | 19.44° C | 20% | 1484.7 hPa | 0 mm | - | 907 W/m² | - |
| 1777741678 | 18.89° C | 20% | 1486 hPa | 0 mm | - | 894 W/m² | - |
| 1777741378 | 18.33° C | 21% | 1487.8 hPa | 0 mm | - | 886 W/m² | - |
| 1777741077 | 17.78° C | 20% | 1489.2 hPa | 0 mm | - | 873 W/m² | - |
| 1777740776 | 17.78° C | 22% | 1489.2 hPa | 0 mm | - | 861 W/m² | - |
| 1777740476 | 17.78° C | 22% | 1489.3 hPa | 0 mm | - | 848 W/m² | - |
| 1777740176 | 17.22° C | 22% | 1489.9 hPa | 0 mm | - | 836 W/m² | - |
| 1777739876 | 17.22° C | 23% | 1489.9 hPa | 0 mm | - | 824 W/m² | - |
| 1777739575 | 17.22° C | 23% | 1490 hPa | 0 mm | - | 811 W/m² | - |
| 1777739275 | 17.22° C | 23% | 1490.7 hPa | 0 mm | - | 796 W/m² | - |
| 1777738974 | 16.67° C | 23% | 1492.5 hPa | 0 mm | - | 787 W/m² | - |
| 1777738673 | 16.11° C | 26% | 1493.5 hPa | 0 mm | - | 773 W/m² | - |
* Rain latest hour (hover to see other rain measurements)
** Current wind speed in m/s (hover to see current wind gust speed)